Amidon, North Dakota
Current Conditions -  °F | °C
As of 1:56 PM on Saturday 22 Nov 2014 (Local Time) from KDIK Reporting Station
Moderate Rain Moderate Rain  
Wind Chill: 30°   Ceiling: 4300
Heat Index: 40°   Visibility: 6mi
Dew Point: 35°   Wind: 23mph
Humidity: 83%   Direction: 260°W
Pressure: 29.32"   Gusts: 29mph
Location:  46.48°N, 103.32°W
Report Text: KDIK 222056Z AUTO 26020G25KT 6SM RA BKN043 OVC050 04/02 A2932 RMK AO2 RAB19 SLP946 P0002 60002 T00440017 55006
Loading
Personal Weather Stations






























Interactive Weather Map New forecast layout! Learn more

10-Day Weather Forecast

Advertisements
Track Severe Weather on mobile